Greenville, Rhode Island
Current Conditions -  °F | °C
As of 2:55 AM on Wednesday 22 Oct 2014 (Local Time) from KSFZ Reporting Station
Overcast Overcast  
Wind Chill: 52°   Ceiling: 200
Heat Index: 52°   Visibility: 1.2mi
Dew Point: 45°   Wind: 12mph
Humidity: 76%   Direction: 360°N
Pressure: 29.94"   Gusts: 17mph
Location:  41.87°N, 71.55°W
Report Text: KSFZ 220655Z 36010G15KT 1 1/4SM OVC002 11/07 A2994 RMK AO1
Loading
Personal Weather Stations






























Interactive Weather Map
Tropical Storm Tracking
New forecast layout! Learn more

10-Day Weather Forecast

Advertisements
Track Severe Weather on mobile